createdAt,value
2019-04-10T00:00:06.553Z,99713.38
2019-04-10T00:02:35.649Z,99713.09
2019-04-10T00:05:03.851Z,99711.51
2019-04-10T00:07:31.736Z,99713.89
2019-04-10T00:09:59.277Z,99713.41
2019-04-10T00:12:26.500Z,99717.44
2019-04-10T00:14:54.847Z,99721.50
2019-04-10T00:17:21.875Z,99713.09
2019-04-10T00:19:48.946Z,99718.41
2019-04-10T00:22:16.049Z,99715.73
2019-04-10T00:24:43.991Z,99716.88
2019-04-10T00:27:11.227Z,99714.58
2019-04-10T00:29:40.355Z,99714.67
2019-04-10T00:32:07.854Z,99708.34
2019-04-10T00:34:35.814Z,99721.95
2019-04-10T00:37:03.779Z,99714.81
2019-04-10T00:39:32.803Z,99711.88
2019-04-10T00:42:00.890Z,99724.31
2019-04-10T00:44:28.119Z,99714.73
2019-04-10T00:46:56.852Z,99719.77
2019-04-10T00:49:24.182Z,99725.20
2019-04-10T00:51:52.013Z,99721.13
2019-04-10T00:54:19.653Z,99716.98
2019-04-10T00:56:46.693Z,99712.75
2019-04-10T00:59:13.828Z,99710.16
2019-04-10T01:01:40.908Z,99712.23
2019-04-10T01:04:07.947Z,99708.59
2019-04-10T01:06:35.763Z,99713.34
2019-04-10T01:09:06.992Z,99705.46
2019-04-10T01:11:35.178Z,99704.41
2019-04-10T01:14:02.354Z,99698.21
2019-04-10T01:16:29.427Z,99701.34
2019-04-10T01:18:56.473Z,99696.57
2019-04-10T01:21:23.518Z,99699.22
2019-04-10T01:23:50.573Z,99695.63
2019-04-10T01:26:17.648Z,99686.41
2019-04-10T01:28:45.097Z,99697.78
2019-04-10T01:31:15.176Z,99687.28
2019-04-10T01:33:43.041Z,99691.48
2019-04-10T01:36:11.008Z,99692.37
2019-04-10T01:38:39.833Z,99684.89
2019-04-10T01:41:07.726Z,99683.94
2019-04-10T01:43:35.166Z,99689.52
2019-04-10T01:46:02.382Z,99686.82
2019-04-10T01:48:30.159Z,99692.77
2019-04-10T01:50:57.342Z,99689.06
2019-04-10T01:53:24.375Z,99692.28
2019-04-10T01:55:53.527Z,99687.48
2019-04-10T01:58:23.115Z,99690.47
2019-04-10T02:00:56.274Z,99689.61
2019-04-10T02:03:23.312Z,99688.02
2019-04-10T02:05:50.430Z,99686.27
2019-04-10T02:08:18.883Z,99680.05
2019-04-10T02:10:46.003Z,99678.62
2019-04-10T02:13:13.062Z,99682.77
2019-04-10T02:15:40.106Z,99687.97
2019-04-10T02:20:34.704Z,99677.86
2019-04-10T02:23:01.838Z,99682.39
2019-04-10T02:25:28.876Z,99683.68
2019-04-10T02:27:56.401Z,99682.94
2019-04-10T02:30:24.089Z,99690.41
2019-04-10T02:32:54.556Z,99682.39
2019-04-10T02:35:24.221Z,99686.41
2019-04-10T02:37:55.311Z,99683.28
2019-04-10T02:40:21.338Z,99682.01
2019-04-10T02:42:49.319Z,99676.70
2019-04-10T02:45:19.095Z,99678.38
2019-04-10T02:47:47.426Z,99672.78
2019-04-10T02:50:16.460Z,99686.62
2019-04-10T02:52:45.953Z,99680.00
2019-04-10T02:55:16.664Z,99677.09
2019-04-10T02:57:51.907Z,99685.00
2019-04-10T03:00:20.275Z,99684.36
2019-04-10T03:02:49.933Z,99687.08
2019-04-10T03:05:17.816Z,99679.08
2019-04-10T03:07:46.372Z,99682.02
2019-04-10T03:10:24.681Z,99683.25
2019-04-10T03:12:44.257Z,99685.09
2019-04-10T03:15:12.622Z,99684.45
2019-04-10T03:17:40.159Z,99680.80
2019-04-10T03:20:07.914Z,99683.22
2019-04-10T03:22:35.128Z,99682.55
2019-04-10T03:25:04.528Z,99677.43
2019-04-10T03:27:31.785Z,99688.38
2019-04-10T03:29:58.823Z,99682.64
2019-04-10T03:32:41.660Z,99679.85
2019-04-10T03:35:14.573Z,99684.66
2019-04-10T03:37:42.550Z,99687.50
2019-04-10T03:40:09.616Z,99691.69
2019-04-10T03:42:37.106Z,99688.53
2019-04-10T03:45:05.572Z,99693.50
2019-04-10T03:47:33.462Z,99697.70
2019-04-10T03:50:00.741Z,99692.37
2019-04-10T03:52:29.405Z,99699.48
2019-04-10T03:54:56.623Z,99700.52
2019-04-10T03:57:24.615Z,99697.30
2019-04-10T03:59:51.901Z,99698.13
2019-04-10T04:02:19.848Z,99696.55
2019-04-10T04:04:48.096Z,99702.47
2019-04-10T04:07:15.417Z,99701.41
2019-04-10T04:09:42.599Z,99706.13
2019-04-10T04:12:10.522Z,99703.16
2019-04-10T04:14:38.772Z,99699.84
2019-04-10T04:17:06.130Z,99707.03
2019-04-10T04:19:34.454Z,99703.34
2019-04-10T04:22:01.738Z,99704.64
2019-04-10T04:24:28.739Z,99700.78
2019-04-10T04:26:55.767Z,99699.45
2019-04-10T04:29:22.847Z,99702.58
2019-04-10T04:31:50.698Z,99700.45
2019-04-10T04:34:18.652Z,99704.99
2019-04-10T04:36:48.723Z,99705.07
2019-04-10T04:39:23.177Z,99709.53
2019-04-10T04:41:44.407Z,99705.82
2019-04-10T04:44:14.598Z,99717.71
2019-04-10T04:46:42.839Z,99713.02
2019-04-10T04:49:11.557Z,99720.38
2019-04-10T04:51:38.853Z,99716.14
2019-04-10T04:54:10.581Z,99718.36
2019-04-10T04:56:42.286Z,99720.29
2019-04-10T04:59:10.161Z,99726.63
2019-04-10T05:01:38.399Z,99721.18
2019-04-10T05:04:05.482Z,99727.75
2019-04-10T05:06:34.994Z,99720.88
2019-04-10T05:09:04.770Z,99726.16
2019-04-10T05:11:34.254Z,99718.40
2019-04-10T05:14:02.683Z,99729.75
2019-04-10T05:16:31.337Z,99735.31
2019-04-10T05:18:59.378Z,99729.97
2019-04-10T05:21:27.369Z,99736.22
2019-04-10T05:23:55.430Z,99732.28
2019-04-10T05:26:22.850Z,99745.72
2019-04-10T05:28:53.050Z,99746.83
2019-04-10T05:31:20.139Z,99755.87
2019-04-10T05:33:47.236Z,99752.87
2019-04-10T05:36:15.282Z,99757.75
2019-04-10T05:38:43.703Z,99753.53
2019-04-10T05:41:13.265Z,99759.73
2019-04-10T05:43:40.593Z,99763.78
2019-04-10T05:46:07.974Z,99763.51
2019-04-10T05:48:35.725Z,99767.55
2019-04-10T05:51:05.705Z,99767.31
2019-04-10T05:53:36.471Z,99775.75
2019-04-10T05:56:03.734Z,99774.36
2019-04-10T05:58:31.514Z,99779.70
2019-04-10T06:01:01.044Z,99781.17
2019-04-10T06:03:28.298Z,99775.27
2019-04-10T06:05:56.677Z,99781.41
2019-04-10T06:08:24.493Z,99776.91
2019-04-10T06:10:51.941Z,99784.66
2019-04-10T06:13:19.749Z,99790.41
2019-04-10T06:15:47.495Z,99790.30
2019-04-10T06:21:37.430Z,99783.84
2019-04-10T06:24:05.832Z,99792.42
2019-04-10T06:26:32.971Z,99786.98
2019-04-10T06:29:02.444Z,99785.63
2019-04-10T06:31:30.474Z,99789.91
2019-04-10T06:33:58.412Z,99792.73
2019-04-10T06:36:25.540Z,99794.85
2019-04-10T06:38:55.207Z,99801.52
2019-04-10T06:41:27.038Z,99796.92
2019-04-10T06:43:55.042Z,99799.89
2019-04-10T06:46:22.458Z,99801.46
2019-04-10T06:48:50.035Z,99799.09
2019-04-10T06:51:18.840Z,99799.22
2019-04-10T06:53:54.042Z,99798.20
2019-04-10T06:56:16.618Z,99809.05
2019-04-10T06:58:44.357Z,99806.23
2019-04-10T07:01:12.608Z,99806.80
2019-04-10T07:03:51.816Z,99805.18
2019-04-10T07:06:15.648Z,99815.39
2019-04-10T07:08:38.096Z,99816.51
2019-04-10T07:11:09.088Z,99818.80
2019-04-10T07:13:39.511Z,99811.34
2019-04-10T07:16:04.213Z,99807.31
2019-04-10T07:18:32.776Z,99816.44
2019-04-10T07:21:01.670Z,99811.17
2019-04-10T07:23:31.904Z,99826.33
2019-04-10T07:25:58.429Z,99824.80
2019-04-10T07:28:25.729Z,99825.33
2019-04-10T07:30:56.827Z,99831.66
2019-04-10T07:33:23.076Z,99831.27
2019-04-10T07:35:50.174Z,99830.28
2019-04-10T07:38:26.707Z,99839.18
2019-04-10T07:41:06.312Z,99834.83
2019-04-10T07:43:38.668Z,99836.30
2019-04-10T07:46:06.095Z,99841.13
2019-04-10T07:48:33.532Z,99834.22
2019-04-10T07:51:00.725Z,99829.54
2019-04-10T07:53:27.758Z,99840.42
2019-04-10T07:56:01.385Z,99844.34
2019-04-10T07:58:23.866Z,99843.30
2019-04-10T08:00:51.421Z,99850.37
2019-04-10T08:03:18.904Z,99851.25
2019-04-10T08:05:46.137Z,99846.11
2019-04-10T08:08:17.450Z,99842.77
2019-04-10T08:10:47.320Z,99852.22
2019-04-10T08:13:14.539Z,99846.55
2019-04-10T08:15:41.561Z,99849.97
2019-04-10T08:18:08.645Z,99855.85
2019-04-10T08:24:58.076Z,99859.17
2019-04-10T08:27:25.620Z,99861.23
2019-04-10T08:29:52.704Z,99861.38
2019-04-10T08:32:19.895Z,99863.63
2019-04-10T08:34:46.895Z,99867.51
2019-04-10T08:37:15.096Z,99871.81
2019-04-10T08:39:45.948Z,99859.51
2019-04-10T08:42:11.127Z,99867.59
2019-04-10T08:44:38.358Z,99869.00
2019-04-10T08:47:07.054Z,99863.46
2019-04-10T08:49:35.228Z,99868.39
2019-04-10T08:52:02.346Z,99863.64
2019-04-10T08:54:32.218Z,99867.02
2019-04-10T08:56:59.796Z,99873.81
2019-04-10T08:59:29.910Z,99874.59
2019-04-10T09:02:04.632Z,99873.68
2019-04-10T09:04:32.116Z,99878.03
2019-04-10T09:07:01.373Z,99876.27
2019-04-10T09:09:29.911Z,99883.39
2019-04-10T09:11:58.388Z,99875.16
2019-04-10T09:14:26.699Z,99876.42
2019-04-10T09:16:55.221Z,99872.44
2019-04-10T09:19:22.318Z,99871.73
2019-04-10T09:21:49.940Z,99869.19
2019-04-10T09:24:17.487Z,99872.60
2019-04-10T09:26:44.658Z,99873.79
2019-04-10T09:29:11.962Z,99873.29
2019-04-10T09:31:40.009Z,99869.55
2019-04-10T09:34:07.582Z,99878.29
2019-04-10T09:36:38.175Z,99871.53
2019-04-10T09:39:07.377Z,99871.17
2019-04-10T09:41:36.224Z,99874.42
2019-04-10T09:44:05.138Z,99867.23
2019-04-10T09:46:33.206Z,99872.48
2019-04-10T09:49:00.524Z,99867.78
2019-04-10T09:51:27.688Z,99875.53
2019-04-10T09:53:54.872Z,99874.69
2019-04-10T09:56:23.086Z,99872.84
2019-04-10T09:58:51.791Z,99866.79
2019-04-10T10:01:19.975Z,99872.35
2019-04-10T10:03:48.569Z,99874.89
2019-04-10T10:06:27.327Z,99867.77
2019-04-10T10:08:46.491Z,99869.63
2019-04-10T10:11:13.825Z,99857.46
2019-04-10T10:13:41.483Z,99857.67
2019-04-10T10:16:08.617Z,99863.70
2019-04-10T10:18:35.643Z,99863.50
2019-04-10T10:21:04.013Z,99863.23
2019-04-10T10:23:36.001Z,99869.78
2019-04-10T10:26:03.787Z,99869.55
2019-04-10T10:28:31.219Z,99862.61
2019-04-10T10:31:00.006Z,99852.37
2019-04-10T10:33:27.912Z,99856.52
2019-04-10T10:35:55.659Z,99854.28
2019-04-10T10:38:23.188Z,99857.63
2019-04-10T10:41:01.747Z,99854.36
2019-04-10T10:43:29.696Z,99853.25
2019-04-10T10:45:57.346Z,99856.42
2019-04-10T10:48:27.430Z,99851.23
2019-04-10T10:50:58.290Z,99851.64
2019-04-10T10:53:26.858Z,99851.13
2019-04-10T10:55:54.070Z,99852.84
2019-04-10T10:58:25.848Z,99850.12
2019-04-10T11:00:53.741Z,99850.11
2019-04-10T11:03:20.824Z,99847.98
2019-04-10T11:05:48.713Z,99844.70
2019-04-10T11:08:15.957Z,99846.80
2019-04-10T11:10:47.985Z,99844.25
2019-04-10T11:13:12.730Z,99841.05
2019-04-10T11:15:43.691Z,99847.22
2019-04-10T11:18:10.300Z,99837.67
2019-04-10T11:20:41.792Z,99842.42
2019-04-10T11:23:09.534Z,99840.45
2019-04-10T11:25:40.397Z,99841.85
2019-04-10T11:28:07.810Z,99842.58
2019-04-10T11:30:36.166Z,99832.30
2019-04-10T11:33:04.079Z,99844.72
2019-04-10T11:35:31.963Z,99835.27
2019-04-10T11:38:00.998Z,99832.61
2019-04-10T11:40:31.646Z,99833.94
2019-04-10T11:43:00.691Z,99819.23
2019-04-10T11:45:29.771Z,99832.00
2019-04-10T11:48:07.788Z,99824.75
2019-04-10T11:50:38.560Z,99830.55
2019-04-10T11:53:07.704Z,99832.81
2019-04-10T11:55:43.668Z,99829.31
2019-04-10T11:58:05.665Z,99826.39
2019-04-10T12:00:47.292Z,99826.14
2019-04-10T12:03:10.545Z,99825.48
2019-04-10T12:05:41.402Z,99823.66
2019-04-10T12:08:32.335Z,99822.72
2019-04-10T12:13:16.469Z,99837.36
2019-04-10T12:15:43.031Z,99829.25
2019-04-10T12:18:12.109Z,99826.28
2019-04-10T12:20:39.204Z,99828.14
2019-04-10T12:23:06.272Z,99829.46
2019-04-10T12:25:36.643Z,99823.67
2019-04-10T12:28:05.472Z,99831.63
2019-04-10T12:30:39.536Z,99828.25
2019-04-10T12:33:07.566Z,99825.15
2019-04-10T12:35:36.735Z,99820.63
2019-04-10T12:38:08.099Z,99831.09
2019-04-10T12:40:35.747Z,99832.59
2019-04-10T12:43:04.926Z,99830.38
2019-04-10T12:45:32.652Z,99827.91
2019-04-10T12:47:59.819Z,99824.65
2019-04-10T12:50:27.208Z,99831.14
2019-04-10T12:52:54.719Z,99844.33
2019-04-10T12:55:23.919Z,99823.48
2019-04-10T12:57:51.300Z,99832.78
2019-04-10T13:00:23.628Z,99836.09
2019-04-10T13:02:52.461Z,99840.41
2019-04-10T13:05:20.963Z,99835.95
2019-04-10T13:07:48.357Z,99819.51
2019-04-10T13:10:15.773Z,99831.57
2019-04-10T13:12:45.308Z,99830.55
2019-04-10T13:15:15.104Z,99828.83
2019-04-10T13:17:42.762Z,99833.11
2019-04-10T13:20:12.042Z,99835.34
2019-04-10T13:22:40.148Z,99834.77
2019-04-10T13:25:10.330Z,99834.00
2019-04-10T13:27:38.990Z,99833.91
2019-04-10T13:30:12.652Z,99824.52
2019-04-10T13:32:40.269Z,99814.91
2019-04-10T13:35:08.157Z,99820.31
2019-04-10T13:37:35.885Z,99822.66
2019-04-10T13:40:05.612Z,99821.86
2019-04-10T13:42:33.514Z,99822.40
2019-04-10T13:45:00.954Z,99829.97
2019-04-10T13:47:29.154Z,99819.63
2019-04-10T13:49:58.001Z,99821.98
2019-04-10T13:52:25.940Z,99836.04
2019-04-10T13:54:54.769Z,99822.67
2019-04-10T13:57:25.107Z,99821.39
2019-04-10T13:59:53.265Z,99823.59
2019-04-10T14:02:32.261Z,99818.19
2019-04-10T14:04:59.754Z,99832.94
2019-04-10T14:07:26.939Z,99826.08
2019-04-10T14:09:54.433Z,99822.63
2019-04-10T14:12:22.823Z,99823.48
2019-04-10T14:14:51.022Z,99825.78
2019-04-10T14:17:21.530Z,99825.83
2019-04-10T14:19:49.798Z,99823.96
2019-04-10T14:22:19.553Z,99821.83
2019-04-10T14:24:49.009Z,99819.83
2019-04-10T14:27:22.880Z,99825.45
2019-04-10T14:29:53.072Z,99831.23
2019-04-10T14:32:29.216Z,99824.98
2019-04-10T14:34:58.833Z,99815.02
2019-04-10T14:37:27.395Z,99817.48
2019-04-10T14:39:55.768Z,99826.91
2019-04-10T14:42:24.520Z,99821.33
2019-04-10T14:44:53.091Z,99826.77
2019-04-10T14:47:21.278Z,99836.16
2019-04-10T14:49:49.322Z,99836.63
2019-04-10T14:52:16.898Z,99839.63
2019-04-10T14:54:44.085Z,99835.24
2019-04-10T14:57:13.325Z,99830.84
2019-04-10T15:06:45.903Z,99840.50
2019-04-10T15:09:25.341Z,99843.40
2019-04-10T15:11:49.027Z,99842.41
2019-04-10T15:14:16.342Z,99841.52
2019-04-10T15:16:52.977Z,99838.72
2019-04-10T15:19:14.645Z,99841.70
2019-04-10T15:21:42.976Z,99846.56
2019-04-10T15:24:11.066Z,99846.66
2019-04-10T15:26:40.972Z,99847.72
2019-04-10T15:29:08.375Z,99845.11
2019-04-10T15:31:37.564Z,99843.42
2019-04-10T15:34:07.978Z,99849.03
2019-04-10T15:36:35.923Z,99860.38
2019-04-10T15:39:06.630Z,99846.91
2019-04-10T15:41:34.920Z,99852.94
2019-04-10T15:44:02.167Z,99849.25
2019-04-10T15:46:30.679Z,99859.45
2019-04-10T15:49:09.189Z,99852.42
2019-04-10T15:51:53.244Z,99860.98
2019-04-10T15:54:23.667Z,99851.73
2019-04-10T15:56:52.106Z,99860.55
2019-04-10T15:59:19.877Z,99861.08
2019-04-10T16:01:50.985Z,99865.38
2019-04-10T16:04:19.802Z,99858.81
2019-04-10T16:06:47.978Z,99866.66
2019-04-10T16:09:17.676Z,99875.43
2019-04-10T16:11:52.288Z,99880.68
2019-04-10T16:14:23.232Z,99884.95
2019-04-10T16:17:09.428Z,99878.41
2019-04-10T16:19:45.658Z,99888.57
2019-04-10T16:22:33.345Z,99875.08
2019-04-10T16:25:03.370Z,99889.89
2019-04-10T16:27:30.754Z,99890.02
2019-04-10T16:30:02.040Z,99886.30
2019-04-10T16:32:32.853Z,99906.02
2019-04-10T16:35:01.196Z,99900.20
2019-04-10T16:37:31.341Z,99903.80
2019-04-10T16:40:03.966Z,99902.21
2019-04-10T16:42:30.730Z,99904.14
2019-04-10T16:44:57.941Z,99913.71
2019-04-10T16:47:26.044Z,99909.17
2019-04-10T16:49:53.346Z,99910.48
2019-04-10T16:52:20.936Z,99908.17
2019-04-10T16:54:49.091Z,99905.99
2019-04-10T16:57:16.462Z,99916.78
2019-04-10T16:59:43.848Z,99923.25
2019-04-10T17:02:12.859Z,99931.39
2019-04-10T17:04:40.233Z,99939.05
2019-04-10T17:07:08.405Z,99934.59
2019-04-10T17:09:36.560Z,99933.27
2019-04-10T17:12:05.902Z,99938.38
2019-04-10T17:14:35.573Z,99942.18
2019-04-10T17:17:06.855Z,99949.16
2019-04-10T17:19:46.616Z,99950.88
2019-04-10T17:22:06.878Z,99945.59
2019-04-10T17:24:35.497Z,99949.83
2019-04-10T17:27:05.048Z,99948.43
2019-04-10T17:29:34.973Z,99936.26
2019-04-10T17:32:04.637Z,99957.27
2019-04-10T17:34:38.934Z,99961.00
2019-04-10T17:37:07.545Z,99961.78
2019-04-10T17:39:40.122Z,99967.27
2019-04-10T17:42:08.116Z,99983.82
2019-04-10T17:44:38.148Z,99983.31
2019-04-10T17:47:09.795Z,99971.31
2019-04-10T17:49:36.722Z,99989.28
2019-04-10T17:52:04.214Z,99979.98
2019-04-10T17:54:34.656Z,99992.38
2019-04-10T17:57:02.451Z,99988.69
2019-04-10T17:59:30.222Z,99985.53
2019-04-10T18:02:01.197Z,99995.59
2019-04-10T18:04:29.713Z,100003.55
2019-04-10T18:06:57.506Z,100002.63
2019-04-10T18:09:26.286Z,100012.59
2019-04-10T18:11:54.222Z,100010.91
2019-04-10T18:14:21.463Z,100012.23
2019-04-10T18:16:49.573Z,100018.21
2019-04-10T18:19:17.162Z,100023.14
2019-04-10T18:21:45.854Z,100019.33
2019-04-10T18:24:13.701Z,100028.78
2019-04-10T18:26:41.821Z,100039.28
2019-04-10T18:29:10.186Z,100040.77
2019-04-10T18:31:39.142Z,100048.72
2019-04-10T18:34:09.636Z,100057.03
2019-04-10T18:36:36.310Z,100058.24
2019-04-10T18:39:08.391Z,100051.95
2019-04-10T18:41:36.647Z,100065.73
2019-04-10T18:44:04.745Z,100065.38
2019-04-10T18:46:35.589Z,100073.81
2019-04-10T18:49:03.895Z,100086.52
2019-04-10T18:51:34.086Z,100084.13
2019-04-10T18:54:02.395Z,100088.48
2019-04-10T18:56:29.559Z,100094.77
2019-04-10T18:59:20.572Z,100093.02
2019-04-10T19:02:03.367Z,100101.97
2019-04-10T19:04:37.491Z,100101.81
2019-04-10T19:07:13.189Z,100106.98
2019-04-10T19:09:52.592Z,100118.55
2019-04-10T19:12:22.150Z,100116.23
2019-04-10T19:14:51.753Z,100111.25
2019-04-10T19:17:21.052Z,100121.88
2019-04-10T19:19:54.788Z,100128.26
2019-04-10T19:22:26.266Z,100130.22
2019-04-10T19:24:58.345Z,100125.76
2019-04-10T19:27:31.939Z,100126.86
2019-04-10T19:29:59.208Z,100132.05
2019-04-10T19:32:35.444Z,100141.32
2019-04-10T19:35:04.675Z,100142.62
2019-04-10T19:37:34.563Z,100144.66
2019-04-10T19:40:02.974Z,100143.52
2019-04-10T19:42:31.176Z,100148.34
2019-04-10T19:45:01.533Z,100144.84
2019-04-10T19:47:32.579Z,100151.87
2019-04-10T19:50:01.293Z,100140.11
2019-04-10T19:52:31.279Z,100153.19
2019-04-10T19:55:01.090Z,100163.16
2019-04-10T19:57:29.057Z,100159.99
2019-04-10T19:59:57.871Z,100162.28
2019-04-10T20:02:25.137Z,100155.25
2019-04-10T20:04:55.143Z,100164.55
2019-04-10T20:07:22.851Z,100170.45
2019-04-10T20:09:50.387Z,100167.77
2019-04-10T20:12:20.277Z,100167.14
2019-04-10T20:14:51.020Z,100179.70
2019-04-10T20:17:24.371Z,100172.17
2019-04-10T20:19:56.465Z,100171.56
2019-04-10T20:22:23.084Z,100191.02
2019-04-10T20:24:51.863Z,100182.47
2019-04-10T20:27:20.233Z,100187.55
2019-04-10T20:29:47.692Z,100181.23
2019-04-10T20:32:15.416Z,100186.26
2019-04-10T20:34:43.829Z,100194.00
2019-04-10T20:37:13.088Z,100196.03
2019-04-10T20:39:41.339Z,100194.98
2019-04-10T20:42:08.391Z,100196.31
2019-04-10T20:44:36.584Z,100201.81
2019-04-10T20:47:04.612Z,100201.56
2019-04-10T20:49:36.456Z,100211.30
2019-04-10T20:52:06.416Z,100210.30
2019-04-10T20:54:35.026Z,100215.34
2019-04-10T20:57:03.353Z,100221.95
2019-04-10T20:59:31.356Z,100217.47
2019-04-10T21:01:58.469Z,100220.83
2019-04-10T21:04:27.638Z,100230.45
2019-04-10T21:06:54.949Z,100225.67
2019-04-10T21:09:22.203Z,100233.36
2019-04-10T21:12:00.949Z,100231.47
2019-04-10T21:14:21.110Z,100231.02
2019-04-10T21:16:48.829Z,100237.05
2019-04-10T21:19:18.615Z,100245.77
2019-04-10T21:21:46.828Z,100252.48
2019-04-10T21:24:14.035Z,100256.56
2019-04-10T21:26:41.710Z,100247.61
2019-04-10T21:29:13.417Z,100263.77
2019-04-10T21:32:08.010Z,100264.22
2019-04-10T21:34:42.625Z,100260.73
2019-04-10T21:37:10.270Z,100272.42
2019-04-10T21:39:38.135Z,100278.38
2019-04-10T21:42:14.818Z,100272.87
2019-04-10T21:44:35.151Z,100271.58
2019-04-10T21:47:03.961Z,100277.17
2019-04-10T21:49:32.374Z,100275.94
2019-04-10T21:51:59.965Z,100280.41
2019-04-10T21:54:27.266Z,100271.97
2019-04-10T21:56:55.499Z,100282.09
2019-04-10T21:59:22.769Z,100281.52
2019-04-10T22:01:52.807Z,100283.28
2019-04-10T22:04:21.000Z,100282.08
2019-04-10T22:07:07.828Z,100288.02
2019-04-10T22:09:57.258Z,100288.31
2019-04-10T22:12:31.748Z,100290.33
2019-04-10T22:14:58.140Z,100272.27
2019-04-10T22:17:25.204Z,100295.80
2019-04-10T22:19:53.399Z,100293.89
2019-04-10T22:22:20.434Z,100299.70
2019-04-10T22:24:48.613Z,100299.22
2019-04-10T22:27:16.933Z,100298.96
2019-04-10T22:29:44.770Z,100300.66
2019-04-10T22:32:14.446Z,100306.27
2019-04-10T22:34:42.659Z,100309.65
2019-04-10T22:37:09.996Z,100314.67
2019-04-10T22:39:37.067Z,100314.67
2019-04-10T22:42:05.349Z,100306.98
2019-04-10T22:44:39.014Z,100314.06
2019-04-10T22:47:01.599Z,100308.37
2019-04-10T22:49:28.826Z,100315.21
2019-04-10T22:51:58.366Z,100315.53
2019-04-10T22:54:26.255Z,100322.81
2019-04-10T22:56:54.440Z,100319.03
2019-04-10T22:59:22.129Z,100323.79
2019-04-10T23:02:00.453Z,100324.55
2019-04-10T23:04:18.556Z,100327.25
2019-04-10T23:06:45.714Z,100321.39
2019-04-10T23:09:13.844Z,100323.52
2019-04-10T23:11:43.482Z,100325.52
2019-04-10T23:14:10.267Z,100332.34
2019-04-10T23:16:38.453Z,100327.05
2019-04-10T23:19:05.761Z,100325.70
2019-04-10T23:21:32.876Z,100330.58
2019-04-10T23:24:00.119Z,100335.81
2019-04-10T23:26:27.181Z,100332.34
2019-04-10T23:28:54.355Z,100331.62
2019-04-10T23:31:21.657Z,100340.75
2019-04-10T23:33:50.341Z,100339.39
2019-04-10T23:36:18.144Z,100331.06
2019-04-10T23:38:45.873Z,100331.63
2019-04-10T23:41:13.713Z,100329.47
2019-04-10T23:43:41.851Z,100335.86
2019-04-10T23:46:11.239Z,100332.03
2019-04-10T23:48:39.160Z,100339.91
2019-04-10T23:51:07.083Z,100335.73
2019-04-10T23:53:34.472Z,100342.80
2019-04-10T23:56:02.125Z,100341.47
2019-04-10T23:58:29.756Z,100339.49
